Time;durP1;ratioP1;P1;durP2;ratioP2;P2;SDS_P1;SDS_P2;PMS_P1;PMS_P2;Temp;Humidity;BMP_temperature;BMP_pressure;BME280_temperature;BME280_humidity;BME280_pressure;Samples;Min_cycle;Max_cycle;Signal;HPM_P1;HPM_P2
2022/11/05 00:10:37;;;;;;;2.60;1.40;;;;;;;;;;5041178;28;92854;-58
2022/11/05 00:19:06;;;;;;;3.10;2.30;;;;;;;;;;4998218;28;93875;-59
2022/11/05 00:27:06;;;;;;;2.60;1.63;;;;;;;;;;5020198;28;92099;-58
2022/11/05 00:29:36;;;;;;;2.87;1.10;;;;;;;;;;5037937;28;92749;-58
2022/11/05 00:32:04;;;;;;;2.60;1.50;;;;;;;;;;5041522;28;92894;-58
2022/11/05 00:34:33;;;;;;;3.40;1.70;;;;;;;;;;5040826;27;92066;-58
2022/11/05 00:37:01;;;;;;;2.50;1.60;;;;;;;;;;5041342;28;92070;-58
2022/11/05 00:39:29;;;;;;;3.10;1.60;;;;;;;;;;5036824;27;94096;-58
2022/11/05 00:45:00;;;;;;;3.20;1.60;;;;;;;;;;5039996;28;92371;-58
2022/11/05 00:50:15;;;;;;;3.03;1.60;;;;;;;;;;5039065;28;93865;-57
2022/11/05 00:52:55;;;;;;;1.20;1.10;;;;;;;;;;5040140;28;92628;-59
2022/11/05 00:55:24;;;;;;;1.43;1.10;;;;;;;;;;5020942;28;92121;-57
2022/11/05 00:57:52;;;;;;;2.13;1.43;;;;;;;;;;5028800;28;91159;-57
2022/11/05 01:00:23;;;;;;;3.90;2.13;;;;;;;;;;5039708;28;93320;-57
2022/11/05 01:02:51;;;;;;;2.67;1.17;;;;;;;;;;5037031;28;93379;-58
2022/11/05 01:05:20;;;;;;;1.33;0.87;;;;;;;;;;5040870;28;93019;-58
2022/11/05 01:07:48;;;;;;;1.73;1.40;;;;;;;;;;5039995;28;92179;-57
2022/11/05 01:10:16;;;;;;;1.23;1.03;;;;;;;;;;5032866;28;94289;-57
2022/11/05 01:12:44;;;;;;;2.33;1.43;;;;;;;;;;5036654;27;92747;-58
2022/11/05 01:15:13;;;;;;;3.07;1.70;;;;;;;;;;5040067;28;92050;-58
2022/11/05 01:17:42;;;;;;;2.60;1.13;;;;;;;;;;5039906;28;92177;-58
2022/11/05 01:20:11;;;;;;;3.00;0.97;;;;;;;;;;5039406;28;93116;-58
2022/11/05 01:22:39;;;;;;;1.47;1.23;;;;;;;;;;5040315;28;93827;-58
2022/11/05 01:25:08;;;;;;;2.47;1.37;;;;;;;;;;5039333;28;92069;-57
2022/11/05 01:27:37;;;;;;;3.40;1.50;;;;;;;;;;5038886;28;94219;-58
2022/11/05 01:30:06;;;;;;;1.93;1.17;;;;;;;;;;5039194;28;95188;-58
2022/11/05 01:32:34;;;;;;;1.77;1.10;;;;;;;;;;5039941;28;93867;-57
2022/11/05 01:35:04;;;;;;;3.30;1.57;;;;;;;;;;5040345;28;91876;-58
2022/11/05 01:37:32;;;;;;;4.27;1.40;;;;;;;;;;5039225;28;92112;-57
2022/11/05 01:40:01;;;;;;;2.17;1.13;;;;;;;;;;5038703;28;93266;-57
2022/11/05 01:42:31;;;;;;;2.33;1.13;;;;;;;;;;5037466;28;93448;-57
2022/11/05 01:45:00;;;;;;;1.90;1.13;;;;;;;;;;5038556;28;92122;-58
2022/11/05 01:47:31;;;;;;;2.37;1.47;;;;;;;;;;5038723;27;91787;-57
2022/11/05 01:50:00;;;;;;;1.27;1.10;;;;;;;;;;5039312;28;94130;-57
2022/11/05 01:52:30;;;;;;;1.50;1.40;;;;;;;;;;5038538;28;94043;-57
2022/11/05 01:54:58;;;;;;;2.53;1.43;;;;;;;;;;5037184;28;92762;-58
2022/11/05 01:57:26;;;;;;;0.87;0.83;;;;;;;;;;5037836;28;92025;-59
2022/11/05 01:59:55;;;;;;;2.07;1.20;;;;;;;;;;5037381;28;93160;-58
2022/11/05 02:02:24;;;;;;;1.10;0.90;;;;;;;;;;5038644;28;92922;-58
2022/11/05 02:04:53;;;;;;;1.63;0.70;;;;;;;;;;5039593;28;92118;-58
2022/11/05 02:07:22;;;;;;;5.97;1.37;;;;;;;;;;5039423;28;92243;-58
2022/11/05 02:09:52;;;;;;;1.23;0.90;;;;;;;;;;5034853;28;92976;-58
2022/11/05 02:12:20;;;;;;;2.13;1.23;;;;;;;;;;5039059;28;92937;-58
2022/11/05 02:14:48;;;;;;;1.63;0.90;;;;;;;;;;5039341;28;91996;-58
2022/11/05 02:17:18;;;;;;;0.90;0.90;;;;;;;;;;5039254;28;91890;-59
2022/11/05 02:19:58;;;;;;;1.70;0.97;;;;;;;;;;5037738;28;93825;-58
2022/11/05 02:22:37;;;;;;;3.47;1.30;;;;;;;;;;5024747;28;93513;-58
2022/11/05 02:25:11;;;;;;;1.13;1.03;;;;;;;;;;5039103;28;92125;-58
2022/11/05 02:27:48;;;;;;;1.27;0.87;;;;;;;;;;5038666;28;92031;-57
2022/11/05 02:30:34;;;;;;;0.90;0.77;;;;;;;;;;5037451;28;93123;-58
2022/11/05 02:33:06;;;;;;;2.00;1.13;;;;;;;;;;5030538;28;93786;-58
2022/11/05 02:35:40;;;;;;;1.17;1.07;;;;;;;;;;5036704;28;92230;-57
2022/11/05 02:38:08;;;;;;;1.77;0.97;;;;;;;;;;5039343;28;91367;-58
2022/11/05 02:40:39;;;;;;;0.80;0.80;;;;;;;;;;5038485;28;94113;-58
2022/11/05 02:43:14;;;;;;;1.63;1.17;;;;;;;;;;5038398;28;92767;-58
2022/11/05 02:45:43;;;;;;;1.03;0.73;;;;;;;;;;5038606;28;92828;-58
2022/11/05 02:48:14;;;;;;;1.93;1.20;;;;;;;;;;5038277;28;92097;-58
2022/11/05 02:50:45;;;;;;;0.83;0.83;;;;;;;;;;5018843;28;93208;-58
2022/11/05 02:53:15;;;;;;;0.40;0.40;;;;;;;;;;5025465;28;93833;-58
2022/11/05 02:55:45;;;;;;;0.83;0.70;;;;;;;;;;5039502;28;91925;-58
2022/11/05 02:58:13;;;;;;;1.77;0.50;;;;;;;;;;5040609;27;92039;-58
2022/11/05 03:00:46;;;;;;;0.90;0.83;;;;;;;;;;5044962;28;93448;-57
2022/11/05 03:03:25;;;;;;;1.90;1.17;;;;;;;;;;5045014;28;92607;-58
2022/11/05 03:06:00;;;;;;;0.80;0.80;;;;;;;;;;5045574;28;92147;-59
2022/11/05 03:08:33;;;;;;;0.63;0.63;;;;;;;;;;5045003;28;92976;-58
2022/11/05 03:11:02;;;;;;;0.60;0.60;;;;;;;;;;5044452;28;95204;-58
2022/11/05 03:13:31;;;;;;;1.27;1.00;;;;;;;;;;5044573;28;93687;-58
2022/11/05 03:16:00;;;;;;;0.93;0.50;;;;;;;;;;5044119;28;92048;-59
2022/11/05 03:18:31;;;;;;;3.20;0.50;;;;;;;;;;5044339;28;92027;-58
2022/11/05 03:21:00;;;;;;;0.87;0.77;;;;;;;;;;5043700;28;93206;-58
2022/11/05 03:23:29;;;;;;;1.83;0.73;;;;;;;;;;5044543;28;92093;-58
2022/11/05 03:26:00;;;;;;;0.97;0.60;;;;;;;;;;5044926;28;92118;-57
2022/11/05 03:28:28;;;;;;;2.30;0.80;;;;;;;;;;5044456;28;92165;-58
2022/11/05 03:30:56;;;;;;;0.63;0.63;;;;;;;;;;5040282;28;92217;-58
2022/11/05 03:33:25;;;;;;;0.53;0.53;;;;;;;;;;5044323;28;92766;-58
2022/11/05 03:35:55;;;;;;;0.50;0.50;;;;;;;;;;5044737;28;92945;-58
2022/11/05 03:38:25;;;;;;;0.60;0.60;;;;;;;;;;5044369;28;91980;-58
2022/11/05 03:40:54;;;;;;;0.60;0.60;;;;;;;;;;5044337;28;92163;-58
2022/11/05 03:43:22;;;;;;;0.73;0.73;;;;;;;;;;5044398;28;93547;-58
2022/11/05 03:45:52;;;;;;;0.70;0.60;;;;;;;;;;5045368;28;92111;-58
2022/11/05 03:48:20;;;;;;;1.27;0.80;;;;;;;;;;5043473;28;94002;-58
2022/11/05 03:50:50;;;;;;;0.57;0.40;;;;;;;;;;5044163;28;94127;-58
2022/11/05 03:53:21;;;;;;;1.80;0.70;;;;;;;;;;5043507;28;93816;-58
2022/11/05 03:55:52;;;;;;;0.67;0.67;;;;;;;;;;5044885;28;91842;-58
2022/11/05 03:58:20;;;;;;;1.80;0.73;;;;;;;;;;5044505;28;92023;-58
2022/11/05 04:00:48;;;;;;;2.53;0.80;;;;;;;;;;5043781;28;94708;-58
2022/11/05 04:03:16;;;;;;;0.63;0.57;;;;;;;;;;5041059;28;94851;-58
2022/11/05 04:13:22;;;;;;;0.40;0.40;;;;;;;;;;5044805;28;92076;-58
2022/11/05 04:14:20;;;;;;;0.80;0.73;;;;;;;;;;4978152;28;93924;-58
2022/11/05 04:17:08;;;;;;;0.50;0.50;;;;;;;;;;5014496;28;93297;-58
2022/11/05 04:25:10;;;;;;;0.97;0.77;;;;;;;;;;5040561;28;92130;-58
2022/11/05 04:27:38;;;;;;;0.83;0.60;;;;;;;;;;5040372;28;93014;-58
2022/11/05 04:30:18;;;;;;;0.50;0.50;;;;;;;;;;5040546;28;92163;-58
2022/11/05 04:33:03;;;;;;;0.70;0.70;;;;;;;;;;5040656;28;93065;-59
2022/11/05 04:35:32;;;;;;;0.80;0.80;;;;;;;;;;5040320;28;92822;-57
2022/11/05 04:38:00;;;;;;;0.80;0.60;;;;;;;;;;5040310;28;92003;-58
2022/11/05 04:40:29;;;;;;;0.70;0.70;;;;;;;;;;5041042;28;92180;-58
2022/11/05 04:42:58;;;;;;;0.60;0.60;;;;;;;;;;5036996;28;93959;-58
2022/11/05 04:45:26;;;;;;;0.70;0.70;;;;;;;;;;5033561;28;92553;-58
2022/11/05 04:47:55;;;;;;;0.40;0.40;;;;;;;;;;5039587;28;92170;-58
2022/11/05 04:50:23;;;;;;;0.97;0.30;;;;;;;;;;5040381;28;92138;-58
2022/11/05 04:52:51;;;;;;;0.50;0.50;;;;;;;;;;5038991;28;93931;-58
2022/11/05 04:55:20;;;;;;;0.30;0.30;;;;;;;;;;5019809;28;93776;-58
2022/11/05 04:57:49;;;;;;;0.40;0.40;;;;;;;;;;5023863;28;92567;-58
2022/11/05 05:00:18;;;;;;;1.13;0.70;;;;;;;;;;5034083;28;93234;-58
2022/11/05 05:02:46;;;;;;;0.67;0.60;;;;;;;;;;5038996;28;93153;-58
2022/11/05 05:05:14;;;;;;;0.20;0.20;;;;;;;;;;5039668;28;93850;-58
2022/11/05 05:07:43;;;;;;;0.93;0.50;;;;;;;;;;5039343;28;92402;-58
2022/11/05 05:10:11;;;;;;;0.50;0.43;;;;;;;;;;5040814;28;91306;-58
2022/11/05 05:12:39;;;;;;;0.40;0.40;;;;;;;;;;5039566;28;94362;-58
2022/11/05 05:15:09;;;;;;;0.43;0.43;;;;;;;;;;5039899;28;92787;-58
2022/11/05 05:17:37;;;;;;;0.73;0.70;;;;;;;;;;5039914;28;93555;-58
2022/11/05 05:22:52;;;;;;;0.70;0.70;;;;;;;;;;5039359;28;93144;-57
2022/11/05 05:25:21;;;;;;;0.87;0.70;;;;;;;;;;5039306;28;93909;-58
2022/11/05 05:27:49;;;;;;;0.67;0.50;;;;;;;;;;5040477;28;92039;-57
2022/11/05 05:30:19;;;;;;;0.60;0.40;;;;;;;;;;5040431;28;92027;-58
2022/11/05 05:32:47;;;;;;;1.90;0.40;;;;;;;;;;5023896;28;93926;-58
2022/11/05 05:35:15;;;;;;;0.93;0.53;;;;;;;;;;5039611;28;92565;-58
2022/11/05 05:37:44;;;;;;;1.27;0.53;;;;;;;;;;5039995;28;92066;-58
2022/11/05 05:40:12;;;;;;;0.57;0.53;;;;;;;;;;5039354;28;92103;-58
2022/11/05 05:42:40;;;;;;;0.77;0.77;;;;;;;;;;5038620;28;94106;-58
2022/11/05 05:45:11;;;;;;;0.63;0.63;;;;;;;;;;5039478;28;94820;-58
2022/11/05 05:47:41;;;;;;;0.40;0.40;;;;;;;;;;5039120;28;92071;-58
2022/11/05 05:50:09;;;;;;;1.07;0.70;;;;;;;;;;5038872;28;92089;-57
2022/11/05 05:52:37;;;;;;;0.67;0.40;;;;;;;;;;5037962;28;94284;-58
2022/11/05 05:55:06;;;;;;;0.70;0.50;;;;;;;;;;5038913;28;92444;-57
2022/11/05 05:57:34;;;;;;;0.77;0.60;;;;;;;;;;5039575;28;92209;-57
2022/11/05 06:00:03;;;;;;;0.40;0.40;;;;;;;;;;5039843;28;91333;-58
2022/11/05 06:02:32;;;;;;;0.60;0.53;;;;;;;;;;5038697;28;94482;-58
2022/11/05 06:05:01;;;;;;;0.50;0.40;;;;;;;;;;5030683;28;92891;-58
2022/11/05 06:07:30;;;;;;;0.63;0.53;;;;;;;;;;5038875;28;92993;-59
2022/11/05 06:10:04;;;;;;;2.93;0.60;;;;;;;;;;5038532;28;93805;-58
2022/11/05 06:12:32;;;;;;;0.50;0.50;;;;;;;;;;5038207;28;92298;-59
2022/11/05 06:15:01;;;;;;;1.90;0.40;;;;;;;;;;5039104;28;93896;-58
2022/11/05 06:17:29;;;;;;;1.50;0.80;;;;;;;;;;5039271;28;92059;-58
2022/11/05 06:19:57;;;;;;;0.43;0.43;;;;;;;;;;5039674;28;91978;-57
2022/11/05 06:22:27;;;;;;;0.50;0.50;;;;;;;;;;5037849;28;94249;-58
2022/11/05 06:24:55;;;;;;;0.33;0.33;;;;;;;;;;5039131;28;93465;-57
2022/11/05 06:27:23;;;;;;;0.50;0.50;;;;;;;;;;5039757;28;92003;-58
2022/11/05 06:29:52;;;;;;;0.50;0.40;;;;;;;;;;5019274;28;92089;-57
2022/11/05 06:32:20;;;;;;;0.47;0.47;;;;;;;;;;5035708;27;93902;-58
2022/11/05 06:34:48;;;;;;;0.40;0.40;;;;;;;;;;5038211;28;94787;-57
2022/11/05 06:37:17;;;;;;;0.73;0.30;;;;;;;;;;5039379;28;91812;-59
2022/11/05 06:39:46;;;;;;;0.43;0.43;;;;;;;;;;5038779;28;92104;-59
2022/11/05 06:42:15;;;;;;;0.40;0.40;;;;;;;;;;5037815;28;93185;-58
2022/11/05 06:44:46;;;;;;;0.50;0.50;;;;;;;;;;5038415;28;92765;-57
2022/11/05 06:47:15;;;;;;;0.50;0.50;;;;;;;;;;5039054;28;91868;-57
2022/11/05 06:49:43;;;;;;;1.23;0.50;;;;;;;;;;5039125;28;91257;-58
2022/11/05 06:52:11;;;;;;;0.60;0.60;;;;;;;;;;5029495;28;92942;-58
2022/11/05 06:54:41;;;;;;;0.80;0.50;;;;;;;;;;5038178;28;93663;-58
2022/11/05 06:57:11;;;;;;;1.10;0.40;;;;;;;;;;5038230;28;94046;-58
2022/11/05 06:59:39;;;;;;;0.47;0.40;;;;;;;;;;5036506;28;95304;-58
2022/11/05 07:02:07;;;;;;;0.97;0.57;;;;;;;;;;5036032;28;92853;-58
2022/11/05 07:04:36;;;;;;;0.30;0.30;;;;;;;;;;5038665;28;92943;-58
2022/11/05 07:07:04;;;;;;;1.80;0.43;;;;;;;;;;5038340;28;92017;-58
2022/11/05 07:09:32;;;;;;;0.40;0.30;;;;;;;;;;5037260;28;92153;-58
2022/11/05 07:12:01;;;;;;;0.93;0.57;;;;;;;;;;5038005;28;92934;-58
2022/11/05 07:14:30;;;;;;;1.10;0.53;;;;;;;;;;5038077;28;92920;-58
2022/11/05 07:16:59;;;;;;;0.73;0.40;;;;;;;;;;5038496;28;92172;-58
2022/11/05 07:19:27;;;;;;;0.93;0.60;;;;;;;;;;5036639;28;92262;-57
2022/11/05 07:21:55;;;;;;;0.60;0.50;;;;;;;;;;5037271;28;93827;-58
2022/11/05 07:24:23;;;;;;;0.67;0.47;;;;;;;;;;5036354;28;93780;-58
2022/11/05 07:26:52;;;;;;;0.90;0.40;;;;;;;;;;5038265;28;92067;-58
2022/11/05 07:29:20;;;;;;;0.70;0.60;;;;;;;;;;5037714;28;92348;-58
2022/11/05 07:31:50;;;;;;;0.97;0.57;;;;;;;;;;5037876;28;93130;-58
2022/11/05 07:34:18;;;;;;;0.47;0.47;;;;;;;;;;5037699;28;93611;-59
2022/11/05 07:36:46;;;;;;;0.70;0.60;;;;;;;;;;5038111;28;92087;-58
2022/11/05 07:39:15;;;;;;;0.50;0.47;;;;;;;;;;5037946;28;91389;-58
2022/11/05 07:41:43;;;;;;;0.43;0.43;;;;;;;;;;5038078;28;94224;-59
2022/11/05 07:44:13;;;;;;;0.40;0.40;;;;;;;;;;5038768;27;93649;-57
2022/11/05 07:46:41;;;;;;;0.47;0.47;;;;;;;;;;5041208;28;93074;-58
2022/11/05 07:49:11;;;;;;;0.90;0.70;;;;;;;;;;5037338;28;92920;-58
2022/11/05 07:51:39;;;;;;;3.60;0.67;;;;;;;;;;5038551;28;94201;-57
2022/11/05 07:54:07;;;;;;;0.60;0.60;;;;;;;;;;5040805;28;92811;-59
2022/11/05 07:56:36;;;;;;;0.37;0.37;;;;;;;;;;5041225;28;92188;-58
2022/11/05 07:59:04;;;;;;;0.60;0.60;;;;;;;;;;5041499;28;92388;-57
2022/11/05 08:01:32;;;;;;;1.60;0.77;;;;;;;;;;5040796;28;94086;-60
2022/11/05 08:04:01;;;;;;;1.07;0.67;;;;;;;;;;5037578;28;91492;-62
2022/11/05 08:06:31;;;;;;;0.70;0.70;;;;;;;;;;5040758;28;92000;-62
2022/11/05 08:08:59;;;;;;;0.83;0.50;;;;;;;;;;5025142;28;92063;-61
2022/11/05 08:11:27;;;;;;;0.90;0.80;;;;;;;;;;5041602;28;95266;-62
2022/11/05 08:13:55;;;;;;;1.43;0.80;;;;;;;;;;5037931;28;93723;-61
2022/11/05 08:16:24;;;;;;;0.90;0.73;;;;;;;;;;5040337;28;92139;-62
2022/11/05 08:18:52;;;;;;;0.60;0.60;;;;;;;;;;5040354;28;92300;-62
2022/11/05 08:21:20;;;;;;;0.50;0.50;;;;;;;;;;5040882;28;93134;-61
2022/11/05 08:23:50;;;;;;;0.40;0.40;;;;;;;;;;5040673;28;93061;-61
2022/11/05 08:26:19;;;;;;;0.60;0.60;;;;;;;;;;5040312;28;92035;-61
2022/11/05 08:28:47;;;;;;;0.87;0.80;;;;;;;;;;5040765;28;91235;-62
2022/11/05 08:31:16;;;;;;;0.80;0.80;;;;;;;;;;5039406;28;93085;-62
2022/11/05 08:33:45;;;;;;;0.90;0.50;;;;;;;;;;5039940;28;92802;-61
2022/11/05 08:36:13;;;;;;;0.90;0.63;;;;;;;;;;5040233;28;93009;-59
2022/11/05 08:38:42;;;;;;;0.93;0.87;;;;;;;;;;5040866;28;92319;-60
2022/11/05 08:41:11;;;;;;;0.50;0.50;;;;;;;;;;5039897;28;94004;-60
2022/11/05 08:43:40;;;;;;;0.93;0.93;;;;;;;;;;5040164;28;92798;-60
2022/11/05 08:46:08;;;;;;;2.17;0.90;;;;;;;;;;5040384;28;92088;-60
2022/11/05 08:48:36;;;;;;;0.73;0.43;;;;;;;;;;5040247;28;92702;-60
2022/11/05 08:51:06;;;;;;;0.80;0.60;;;;;;;;;;5039750;28;93789;-60
2022/11/05 08:53:34;;;;;;;0.97;0.80;;;;;;;;;;5040458;28;92926;-60
2022/11/05 08:56:02;;;;;;;0.53;0.53;;;;;;;;;;5039699;28;92081;-60
2022/11/05 08:58:32;;;;;;;0.87;0.60;;;;;;;;;;5032380;28;93431;-60
2022/11/05 09:01:00;;;;;;;0.77;0.77;;;;;;;;;;5040124;28;95227;-60
2022/11/05 09:03:32;;;;;;;0.83;0.60;;;;;;;;;;5039712;28;96234;-60
2022/11/05 09:06:01;;;;;;;0.53;0.53;;;;;;;;;;5038569;28;92055;-60
2022/11/05 09:08:29;;;;;;;0.73;0.73;;;;;;;;;;5039664;28;92106;-60
2022/11/05 09:10:57;;;;;;;0.70;0.53;;;;;;;;;;5038722;28;93299;-60
2022/11/05 09:13:25;;;;;;;0.53;0.50;;;;;;;;;;5026938;28;93011;-60
2022/11/05 09:15:56;;;;;;;0.77;0.73;;;;;;;;;;5039732;28;92110;-60
2022/11/05 09:18:24;;;;;;;1.13;0.87;;;;;;;;;;5039391;28;91371;-60
2022/11/05 09:20:52;;;;;;;0.70;0.70;;;;;;;;;;5039103;28;93142;-61
2022/11/05 09:23:20;;;;;;;0.70;0.70;;;;;;;;;;5039971;28;92674;-60
2022/11/05 09:25:49;;;;;;;0.50;0.50;;;;;;;;;;5038114;28;93040;-60
2022/11/05 09:28:18;;;;;;;1.73;0.60;;;;;;;;;;5039360;28;92138;-60
2022/11/05 09:30:47;;;;;;;0.60;0.60;;;;;;;;;;5038571;28;93271;-60
2022/11/05 09:33:17;;;;;;;0.40;0.40;;;;;;;;;;5038693;28;92806;-60
2022/11/05 09:35:45;;;;;;;0.53;0.53;;;;;;;;;;5039429;28;92038;-60
2022/11/05 09:38:14;;;;;;;0.60;0.60;;;;;;;;;;5039808;28;92068;-60
2022/11/05 09:40:42;;;;;;;2.43;0.60;;;;;;;;;;5039399;28;93802;-59
2022/11/05 09:43:11;;;;;;;0.47;0.47;;;;;;;;;;5039540;28;93997;-60
2022/11/05 09:45:39;;;;;;;1.07;0.67;;;;;;;;;;5039307;28;92036;-60
2022/11/05 09:48:11;;;;;;;1.50;0.63;;;;;;;;;;5038137;28;92232;-60
2022/11/05 09:50:40;;;;;;;0.63;0.53;;;;;;;;;;5038852;28;94042;-60
2022/11/05 09:53:10;;;;;;;0.67;0.43;;;;;;;;;;5037791;28;93528;-60
2022/11/05 09:55:39;;;;;;;0.50;0.50;;;;;;;;;;5038673;28;93238;-58
2022/11/05 09:58:17;;;;;;;1.60;0.70;;;;;;;;;;5025033;28;92116;-59
2022/11/05 10:00:47;;;;;;;0.50;0.50;;;;;;;;;;5026075;28;93219;-58
2022/11/05 10:03:16;;;;;;;1.60;0.90;;;;;;;;;;5038093;28;92700;-59
2022/11/05 10:05:45;;;;;;;0.50;0.50;;;;;;;;;;5038479;28;92106;-58
2022/11/05 10:08:16;;;;;;;0.40;0.40;;;;;;;;;;5034803;28;91395;-59
2022/11/05 10:10:45;;;;;;;2.97;0.80;;;;;;;;;;5037526;28;94498;-59
2022/11/05 10:13:16;;;;;;;0.80;0.50;;;;;;;;;;5037327;28;93761;-59
2022/11/05 10:15:47;;;;;;;0.50;0.50;;;;;;;;;;5033859;28;93087;-57
2022/11/05 10:18:15;;;;;;;0.60;0.50;;;;;;;;;;5033594;28;92111;-58
2022/11/05 10:20:45;;;;;;;2.70;0.77;;;;;;;;;;5039033;28;92958;-58
2022/11/05 10:23:14;;;;;;;0.50;0.37;;;;;;;;;;5027648;28;93927;-57
2022/11/05 10:25:44;;;;;;;1.23;0.60;;;;;;;;;;5034222;28;92144;-57
2022/11/05 10:28:15;;;;;;;0.40;0.30;;;;;;;;;;5034898;28;92099;-58
2022/11/05 10:30:43;;;;;;;0.87;0.80;;;;;;;;;;5039218;28;92659;-57
2022/11/05 10:33:12;;;;;;;2.57;1.00;;;;;;;;;;5039696;28;93822;-57
2022/11/05 10:35:42;;;;;;;0.77;0.77;;;;;;;;;;5038994;28;92090;-57
2022/11/05 10:38:13;;;;;;;0.60;0.60;;;;;;;;;;5039899;28;92103;-58
2022/11/05 10:40:43;;;;;;;1.10;0.80;;;;;;;;;;5037228;28;94290;-59
2022/11/05 10:43:13;;;;;;;1.27;0.73;;;;;;;;;;5029429;28;93763;-58
2022/11/05 10:45:46;;;;;;;0.97;0.73;;;;;;;;;;5038422;28;92025;-58
2022/11/05 10:48:31;;;;;;;5.00;0.73;;;;;;;;;;5017520;28;91996;-58
2022/11/05 10:50:59;;;;;;;1.17;0.73;;;;;;;;;;5016994;28;94150;-60
2022/11/05 10:53:30;;;;;;;0.90;0.80;;;;;;;;;;5018534;28;93785;-59
2022/11/05 10:55:58;;;;;;;0.53;0.53;;;;;;;;;;5019291;28;91977;-58
2022/11/05 10:58:27;;;;;;;3.10;0.93;;;;;;;;;;5019663;28;91229;-58
2022/11/05 11:01:03;;;;;;;0.97;0.70;;;;;;;;;;5020597;28;94184;-58
2022/11/05 11:03:33;;;;;;;0.77;0.77;;;;;;;;;;5038503;28;93543;-58
2022/11/05 11:06:02;;;;;;;0.40;0.40;;;;;;;;;;5038625;28;92919;-58
2022/11/05 11:08:33;;;;;;;0.60;0.60;;;;;;;;;;5038842;28;92165;-58
2022/11/05 11:11:03;;;;;;;0.60;0.60;;;;;;;;;;5038468;28;92146;-58
2022/11/05 11:13:50;;;;;;;0.87;0.70;;;;;;;;;;5038213;28;92940;-58
2022/11/05 11:16:20;;;;;;;3.83;0.63;;;;;;;;;;5038873;28;92017;-60
2022/11/05 11:18:48;;;;;;;1.00;0.80;;;;;;;;;;5039257;28;92371;-59
2022/11/05 11:21:18;;;;;;;0.57;0.57;;;;;;;;;;5042896;28;93881;-61
2022/11/05 11:23:54;;;;;;;0.40;0.40;;;;;;;;;;5042430;28;93730;-60
2022/11/05 11:26:22;;;;;;;0.50;0.50;;;;;;;;;;5039439;28;92175;-61
2022/11/05 11:28:52;;;;;;;1.30;0.60;;;;;;;;;;5042458;28;92083;-59
2022/11/05 11:31:21;;;;;;;0.50;0.50;;;;;;;;;;5041417;28;95091;-59
2022/11/05 11:33:51;;;;;;;0.37;0.37;;;;;;;;;;5040788;28;93779;-60
2022/11/05 11:36:20;;;;;;;0.70;0.60;;;;;;;;;;5025578;28;92167;-59
2022/11/05 11:38:49;;;;;;;2.03;0.70;;;;;;;;;;5022116;28;92135;-60
2022/11/05 11:41:23;;;;;;;1.00;0.70;;;;;;;;;;5035896;28;93149;-59
2022/11/05 11:43:53;;;;;;;0.87;0.50;;;;;;;;;;5041139;28;94045;-59
2022/11/05 11:46:21;;;;;;;1.93;0.53;;;;;;;;;;5041107;28;92239;-60
2022/11/05 11:48:50;;;;;;;0.93;0.40;;;;;;;;;;5042266;28;91287;-60
2022/11/05 11:51:19;;;;;;;0.50;0.50;;;;;;;;;;5025964;28;93203;-59
2022/11/05 11:53:49;;;;;;;0.50;0.50;;;;;;;;;;5041018;28;93975;-60
2022/11/05 11:56:19;;;;;;;0.63;0.63;;;;;;;;;;5041291;28;93039;-59
2022/11/05 11:58:48;;;;;;;1.40;0.80;;;;;;;;;;5041822;28;92029;-59
2022/11/05 12:01:32;;;;;;;0.70;0.70;;;;;;;;;;5040271;28;93003;-60
2022/11/05 12:04:00;;;;;;;3.40;0.80;;;;;;;;;;5040888;28;93995;-60
2022/11/05 12:06:30;;;;;;;4.63;0.93;;;;;;;;;;5040961;28;92156;-59
2022/11/05 12:09:02;;;;;;;1.17;0.80;;;;;;;;;;5041518;28;92071;-60
2022/11/05 12:11:35;;;;;;;3.10;0.93;;;;;;;;;;5040681;28;92907;-60
2022/11/05 12:14:04;;;;;;;5.70;0.60;;;;;;;;;;5041165;28;92720;-59
2022/11/05 12:16:40;;;;;;;0.93;0.60;;;;;;;;;;5039590;28;92034;-61
2022/11/05 12:19:12;;;;;;;1.00;0.60;;;;;;;;;;5041204;28;92060;-60
2022/11/05 12:21:42;;;;;;;4.00;1.00;;;;;;;;;;5040285;28;95044;-60
2022/11/05 12:24:43;;;;;;;0.57;0.40;;;;;;;;;;5037657;28;94859;-60
2022/11/05 12:27:16;;;;;;;0.53;0.47;;;;;;;;;;5025734;28;93264;-59
2022/11/05 12:29:48;;;;;;;0.47;0.47;;;;;;;;;;5041701;28;92096;-60
2022/11/05 12:32:39;;;;;;;1.13;1.03;;;;;;;;;;5039507;28;93274;-59
2022/11/05 12:35:11;;;;;;;3.20;0.90;;;;;;;;;;5041043;28;93915;-60
2022/11/05 12:37:42;;;;;;;1.53;0.50;;;;;;;;;;5041384;28;92050;-60
2022/11/05 12:40:17;;;;;;;0.60;0.43;;;;;;;;;;5033459;28;91342;-60
2022/11/05 12:42:51;;;;;;;0.83;0.67;;;;;;;;;;5040556;28;94164;-60
2022/11/05 12:45:23;;;;;;;0.83;0.50;;;;;;;;;;5041121;28;93827;-60
2022/11/05 12:47:55;;;;;;;0.50;0.50;;;;;;;;;;5040573;28;93071;-61
2022/11/05 12:50:25;;;;;;;0.50;0.50;;;;;;;;;;5041295;28;92110;-62
2022/11/05 12:52:58;;;;;;;0.67;0.50;;;;;;;;;;5040729;28;93157;-62
2022/11/05 12:55:26;;;;;;;1.00;0.50;;;;;;;;;;5041445;28;93978;-62
2022/11/05 12:57:58;;;;;;;1.13;0.50;;;;;;;;;;5041423;28;91769;-62
2022/11/05 13:00:26;;;;;;;0.97;0.70;;;;;;;;;;5041254;28;92105;-62
2022/11/05 13:02:55;;;;;;;0.33;0.33;;;;;;;;;;5040822;28;93134;-62
2022/11/05 13:05:26;;;;;;;0.83;0.50;;;;;;;;;;5041090;28;93873;-62
2022/11/05 13:07:57;;;;;;;1.13;0.93;;;;;;;;;;5041237;28;91975;-62
2022/11/05 13:10:26;;;;;;;0.60;0.30;;;;;;;;;;5041057;28;91911;-62
2022/11/05 13:12:58;;;;;;;0.80;0.70;;;;;;;;;;5039542;28;94129;-62
2022/11/05 13:15:27;;;;;;;2.63;0.70;;;;;;;;;;5040260;28;93725;-63
2022/11/05 13:17:57;;;;;;;0.97;0.43;;;;;;;;;;5040443;28;92066;-62
2022/11/05 13:20:26;;;;;;;0.47;0.47;;;;;;;;;;5041116;28;92894;-62
2022/11/05 13:22:56;;;;;;;0.60;0.60;;;;;;;;;;5040487;28;93293;-62
2022/11/05 13:25:25;;;;;;;0.47;0.47;;;;;;;;;;5040381;28;93884;-63
2022/11/05 13:27:55;;;;;;;1.13;0.80;;;;;;;;;;5040713;28;92182;-62
2022/11/05 13:30:25;;;;;;;0.30;0.30;;;;;;;;;;5040941;28;91352;-62
2022/11/05 13:32:55;;;;;;;0.53;0.53;;;;;;;;;;5040487;28;92907;-62
2022/11/05 13:35:25;;;;;;;1.43;0.60;;;;;;;;;;5039796;28;93978;-63
2022/11/05 13:40:42;;;;;;;0.40;0.40;;;;;;;;;;5040233;28;92095;-62
2022/11/05 13:43:15;;;;;;;2.20;0.73;;;;;;;;;;5031178;28;93015;-60
2022/11/05 13:46:04;;;;;;;0.40;0.40;;;;;;;;;;5039896;28;93975;-60
2022/11/05 13:48:40;;;;;;;0.77;0.40;;;;;;;;;;5034427;28;92085;-63
2022/11/05 13:51:23;;;;;;;3.30;0.40;;;;;;;;;;5040676;28;92303;-61
2022/11/05 13:54:25;;;;;;;1.90;0.70;;;;;;;;;;5039033;28;94219;-61
2022/11/05 13:57:05;;;;;;;0.60;0.43;;;;;;;;;;4958082;28;93973;-61
2022/11/05 13:59:40;;;;;;;0.77;0.67;;;;;;;;;;4957919;28;92223;-60
2022/11/05 14:02:12;;;;;;;0.37;0.37;;;;;;;;;;5006448;28;92138;-60
2022/11/05 14:04:42;;;;;;;0.40;0.40;;;;;;;;;;5039079;28;94034;-60
2022/11/05 14:07:11;;;;;;;0.63;0.57;;;;;;;;;;5039689;28;93921;-61
2022/11/05 14:09:40;;;;;;;0.63;0.50;;;;;;;;;;5039780;28;92062;-60
2022/11/05 14:12:14;;;;;;;1.33;0.70;;;;;;;;;;5039290;28;92167;-60
2022/11/05 14:14:44;;;;;;;2.20;0.50;;;;;;;;;;5039341;28;94312;-61
2022/11/05 14:17:16;;;;;;;0.43;0.43;;;;;;;;;;5039295;28;92358;-60
2022/11/05 14:20:06;;;;;;;1.50;0.53;;;;;;;;;;5039450;28;91868;-60
2022/11/05 14:22:38;;;;;;;1.03;0.53;;;;;;;;;;5040203;28;91255;-60
2022/11/05 14:25:25;;;;;;;1.27;0.70;;;;;;;;;;5039129;28;93287;-60
2022/11/05 14:27:53;;;;;;;0.83;0.50;;;;;;;;;;4998626;28;92770;-60
2022/11/05 14:30:41;;;;;;;0.73;0.73;;;;;;;;;;5038533;28;92929;-61
2022/11/05 14:33:16;;;;;;;1.37;0.67;;;;;;;;;;5039266;28;92178;-60
2022/11/05 14:35:46;;;;;;;0.50;0.50;;;;;;;;;;5038968;28;94248;-60
2022/11/05 14:38:19;;;;;;;0.53;0.53;;;;;;;;;;5038726;28;92808;-60
2022/11/05 14:40:47;;;;;;;0.97;0.50;;;;;;;;;;5039251;28;92128;-60
2022/11/05 14:43:18;;;;;;;0.93;0.83;;;;;;;;;;5039283;28;92073;-60
2022/11/05 14:45:53;;;;;;;17.97;6.90;;;;;;;;;;5038922;28;93128;-60
2022/11/05 14:48:36;;;;;;;11.20;5.53;;;;;;;;;;5038807;28;94005;-60
2022/11/05 14:51:18;;;;;;;14.70;7.73;;;;;;;;;;5039434;28;91781;-60
2022/11/05 14:53:46;;;;;;;14.77;6.97;;;;;;;;;;5037766;28;92080;-60
2022/11/05 14:56:15;;;;;;;15.40;7.37;;;;;;;;;;5038285;28;92961;-59
2022/11/05 14:58:43;;;;;;;18.47;6.97;;;;;;;;;;5038182;28;93895;-59
2022/11/05 15:01:43;;;;;;;12.87;5.53;;;;;;;;;;5038481;28;91974;-60
2022/11/05 15:04:18;;;;;;;12.00;5.87;;;;;;;;;;5038844;28;92089;-60
2022/11/05 15:07:02;;;;;;;14.60;7.00;;;;;;;;;;5026953;28;93049;-60
2022/11/05 15:09:32;;;;;;;16.33;6.03;;;;;;;;;;5017441;28;92090;-60
2022/11/05 15:12:13;;;;;;;13.47;6.80;;;;;;;;;;5018770;28;92158;-60
2022/11/05 15:14:47;;;;;;;12.67;5.80;;;;;;;;;;5018757;28;91279;-59
2022/11/05 15:17:17;;;;;;;13.90;5.80;;;;;;;;;;5024249;28;94212;-60
2022/11/05 15:19:45;;;;;;;16.37;5.70;;;;;;;;;;5026940;28;93924;-59
2022/11/05 15:22:22;;;;;;;9.77;4.40;;;;;;;;;;5025953;28;92838;-59
2022/11/05 15:24:52;;;;;;;11.93;5.60;;;;;;;;;;5026993;28;93742;-60
2022/11/05 15:27:22;;;;;;;12.23;5.77;;;;;;;;;;5028146;28;94163;-60
2022/11/05 15:29:51;;;;;;;14.93;6.53;;;;;;;;;;5027903;28;93896;-60
2022/11/05 15:32:19;;;;;;;12.17;6.43;;;;;;;;;;5026542;28;92256;-60
2022/11/05 15:34:51;;;;;;;12.87;5.23;;;;;;;;;;5028204;28;92181;-60
2022/11/05 15:37:22;;;;;;;10.37;6.33;;;;;;;;;;5026728;28;94262;-59
2022/11/05 15:39:53;;;;;;;13.03;6.90;;;;;;;;;;5022763;28;91907;-60
2022/11/05 15:42:22;;;;;;;14.03;6.57;;;;;;;;;;5025694;28;92293;-60
2022/11/05 15:44:50;;;;;;;20.33;6.67;;;;;;;;;;5026334;28;92090;-61
2022/11/05 15:47:20;;;;;;;13.03;6.50;;;;;;;;;;5030586;28;94305;-61